BBC Orinoco — V2DM2 — position and weather

sailwx.info

Track history (hours):
 
Tides and Currents Weather Stations Pressure Air Temp Water Temp Dewpoint Dewpoint Depression Visibility Wind Speed Wind Dir Waves Ship Positions

BBC Orinoco

Last reported at 2015-May-26 23:33 UTC. Time now 2015-May-27 16:02 UTC.
Position N 57°49' E 010°41'.

Length 143 m; draft 9.9 m.

Type: Ship. MMSI: 305255000.

Date/timePositionNaut miles runAvg speedWind from/ knotsBaromVisibWave heightAir tempDewpointWater temp
2015-May-26 23:33N 57°49' E 010°41'1010.0
2015-May-26 22:33N 57°44' E 010°57'1010.5
2015-May-26 21:33N 57°37' E 011°12'1110.6
2015-May-26 20:33N 57°29' E 011°25'1211.7
2015-May-26 19:33N 57°18' E 011°33'1211.9
2015-May-26 18:33N 57°07' E 011°40'1211.7
2015-May-26 17:33N 56°56' E 011°47'1111.4
2015-May-26 16:33N 56°45' E 011°53'13210.7
2015-May-26 04:11N 54°36' E 010°60'711.8
2015-May-26 03:33N 54°35' E 011°12'1211.9
2015-May-26 02:33N 54°30' E 011°31'1111.5
2015-May-26 01:33N 54°26' E 011°49'5611.1
2015-May-25 20:33N 54°54' E 013°12'4811.7
2015-May-25 16:25N 55°19' E 014°24'1012.0
2015-May-25 15:33N 55°27' E 014°36'1212.0
2015-May-25 14:33N 55°33' E 014°54'1212.3
2015-May-25 13:34N 55°38' E 015°13'1412.1
2015-May-25 12:24N 55°45' E 015°35'1011.9
2015-May-25 11:32N 55°50' E 015°51'8211.1
2015-May-25 04:07N 56°59' E 017°12'1011.9
2015-May-25 03:15N 57°09' E 017°17'812.0
2015-May-25 02:34N 57°17' E 017°20'1212.1
2015-May-25 01:33N 57°29' E 017°20'  
Track history (hours):
 
Tides and Currents Weather Stations Pressure Air Temp Water Temp Dewpoint Dewpoint Depression Visibility Wind Speed Wind Dir Waves Ship Positions

BBC Orinoco

Last reported at 2015-May-26 23:33 UTC. Time now 2015-May-27 16:02 UTC.
Position N 57°49' E 010°41'.

Length 143 m; draft 9.9 m.

Type: Ship. MMSI: 305255000.

Date/timePositionNaut miles runAvg speedWind from/ knotsBaromVisibWave heightAir tempDewpointWater temp
2015-May-26 23:33N 57°49' E 010°41'1010.0
2015-May-26 22:33N 57°44' E 010°57'1010.5
2015-May-26 21:33N 57°37' E 011°12'1110.6
2015-May-26 20:33N 57°29' E 011°25'1211.7
2015-May-26 19:33N 57°18' E 011°33'1211.9
2015-May-26 18:33N 57°07' E 011°40'1211.7
2015-May-26 17:33N 56°56' E 011°47'1111.4
2015-May-26 16:33N 56°45' E 011°53'13210.7
2015-May-26 04:11N 54°36' E 010°60'711.8
2015-May-26 03:33N 54°35' E 011°12'1211.9
2015-May-26 02:33N 54°30' E 011°31'1111.5
2015-May-26 01:33N 54°26' E 011°49'5611.1
2015-May-25 20:33N 54°54' E 013°12'4811.7
2015-May-25 16:25N 55°19' E 014°24'1012.0
2015-May-25 15:33N 55°27' E 014°36'1212.0
2015-May-25 14:33N 55°33' E 014°54'1212.3
2015-May-25 13:34N 55°38' E 015°13'1412.1
2015-May-25 12:24N 55°45' E 015°35'1011.9
2015-May-25 11:32N 55°50' E 015°51'8211.1
2015-May-25 04:07N 56°59' E 017°12'1011.9
2015-May-25 03:15N 57°09' E 017°17'812.0
2015-May-25 02:34N 57°17' E 017°20'1212.1
2015-May-25 01:33N 57°29' E 017°20'  

Dump ship's entire track history